createdAt,value
2018-03-28T00:01:16.973Z,4.60
2018-03-28T00:03:43.648Z,4.07
2018-03-28T00:06:10.401Z,7.55
2018-03-28T00:08:37.737Z,6.62
2018-03-28T00:11:04.569Z,7.60
2018-03-28T00:13:31.896Z,5.93
2018-03-28T00:15:59.105Z,4.82
2018-03-28T00:18:25.699Z,3.78
2018-03-28T00:20:53.052Z,4.78
2018-03-28T00:23:19.534Z,5.10
2018-03-28T00:25:46.427Z,4.55
2018-03-28T00:28:13.598Z,4.55
2018-03-28T00:30:40.063Z,4.32
2018-03-28T00:33:06.608Z,5.07
2018-03-28T00:35:33.066Z,6.55
2018-03-28T00:37:59.541Z,4.28
2018-03-28T00:40:26.104Z,5.07
2018-03-28T00:42:52.554Z,3.37
2018-03-28T00:45:18.989Z,4.95
2018-03-28T00:47:46.425Z,6.70
2018-03-28T00:50:13.795Z,5.05
2018-03-28T00:52:40.308Z,4.30
2018-03-28T00:55:06.899Z,3.97
2018-03-28T00:57:33.639Z,4.82
2018-03-28T01:00:00.110Z,4.87
2018-03-28T01:02:26.624Z,4.77
2018-03-28T01:04:53.277Z,4.17
2018-03-28T01:07:19.773Z,4.78
2018-03-28T01:09:47.382Z,4.50
2018-03-28T01:12:14.876Z,4.22
2018-03-28T01:14:42.085Z,5.55
2018-03-28T01:17:08.639Z,4.30
2018-03-28T01:19:35.145Z,3.17
2018-03-28T01:22:01.727Z,3.60
2018-03-28T01:24:28.237Z,4.33
2018-03-28T01:26:55.382Z,4.87
2018-03-28T01:29:21.857Z,4.80
2018-03-28T01:31:48.415Z,3.75
2018-03-28T01:34:14.881Z,4.12
2018-03-28T01:36:41.368Z,4.47
2018-03-28T01:39:08.016Z,4.72
2018-03-28T01:41:34.449Z,3.10
2018-03-28T01:44:00.906Z,3.87
2018-03-28T01:46:27.351Z,5.75
2018-03-28T01:48:53.832Z,4.62
2018-03-28T01:51:20.351Z,4.78
2018-03-28T01:53:46.847Z,3.80
2018-03-28T01:56:13.340Z,3.50
2018-03-28T01:58:39.911Z,3.83
2018-03-28T02:01:06.418Z,4.20
2018-03-28T02:03:32.867Z,4.12
2018-03-28T02:05:59.466Z,4.32
2018-03-28T02:08:25.995Z,3.67
2018-03-28T02:10:52.438Z,4.20
2018-03-28T02:13:18.969Z,3.42
2018-03-28T02:15:45.538Z,2.87
2018-03-28T02:18:11.977Z,3.83
2018-03-28T02:20:39.202Z,2.97
2018-03-28T02:23:05.683Z,3.65
2018-03-28T02:25:32.270Z,3.17
2018-03-28T02:27:58.728Z,3.25
2018-03-28T02:30:25.491Z,3.45
2018-03-28T02:32:51.939Z,3.53
2018-03-28T02:35:18.513Z,3.27
2018-03-28T02:37:45.935Z,3.10
2018-03-28T02:40:12.431Z,3.28
2018-03-28T02:42:39.052Z,3.93
2018-03-28T02:45:05.660Z,3.12
2018-03-28T02:47:32.105Z,3.75
2018-03-28T02:49:58.554Z,2.95
2018-03-28T02:52:25.064Z,5.20
2018-03-28T02:54:51.534Z,3.08
2018-03-28T02:57:18.095Z,2.85
2018-03-28T02:59:44.778Z,3.87
2018-03-28T03:02:11.240Z,2.50
2018-03-28T03:04:37.745Z,4.30
2018-03-28T03:07:04.797Z,3.65
2018-03-28T03:09:31.329Z,2.70
2018-03-28T03:11:57.743Z,2.78
2018-03-28T03:14:24.423Z,2.87
2018-03-28T03:16:50.860Z,4.00
2018-03-28T03:19:17.393Z,3.43
2018-03-28T03:21:44.176Z,3.00
2018-03-28T03:24:11.410Z,2.92
2018-03-28T03:26:37.879Z,2.28
2018-03-28T03:29:05.227Z,3.15
2018-03-28T03:31:31.730Z,2.37
2018-03-28T03:33:58.233Z,2.70
2018-03-28T03:36:25.086Z,2.90
2018-03-28T03:38:51.552Z,3.42
2018-03-28T03:41:18.139Z,2.67
2018-03-28T03:43:45.155Z,2.80
2018-03-28T03:46:11.720Z,2.75
2018-03-28T03:48:38.219Z,2.60
2018-03-28T03:51:05.022Z,2.78
2018-03-28T03:53:31.508Z,3.53
2018-03-28T03:55:57.967Z,2.83
2018-03-28T03:58:24.632Z,2.58
2018-03-28T04:00:51.154Z,6.32
2018-03-28T04:03:17.653Z,3.83
2018-03-28T04:05:44.464Z,2.72
2018-03-28T04:08:10.989Z,2.70
2018-03-28T04:10:37.507Z,3.08
2018-03-28T04:13:04.987Z,2.67
2018-03-28T04:15:31.478Z,4.07
2018-03-28T04:17:57.967Z,4.55
2018-03-28T04:20:24.569Z,3.08
2018-03-28T04:22:51.102Z,2.42
2018-03-28T04:25:18.368Z,2.83
2018-03-28T04:27:45.665Z,2.83
2018-03-28T04:30:12.379Z,3.57
2018-03-28T04:32:38.887Z,2.60
2018-03-28T04:35:05.398Z,2.70
2018-03-28T04:37:31.980Z,3.05
2018-03-28T04:39:58.464Z,3.15
2018-03-28T04:42:25.099Z,2.72
2018-03-28T04:44:52.362Z,2.90
2018-03-28T04:47:19.012Z,3.75
2018-03-28T04:49:45.669Z,3.47
2018-03-28T04:52:12.110Z,6.75
2018-03-28T04:54:38.614Z,3.53
2018-03-28T04:57:05.609Z,3.37
2018-03-28T04:59:32.054Z,3.92
2018-03-28T05:01:58.440Z,3.67
2018-03-28T05:04:24.973Z,3.22
2018-03-28T05:06:51.359Z,3.62
2018-03-28T05:09:17.990Z,3.05
2018-03-28T05:11:44.559Z,3.92
2018-03-28T05:14:11.808Z,3.72
2018-03-28T05:16:38.467Z,3.72
2018-03-28T05:19:04.966Z,4.10
2018-03-28T05:21:31.488Z,3.15
2018-03-28T05:23:58.000Z,3.62
2018-03-28T05:26:24.967Z,3.80
2018-03-28T05:28:51.424Z,4.80
2018-03-28T05:31:18.698Z,4.50
2018-03-28T05:33:45.505Z,3.50
2018-03-28T05:36:12.820Z,3.28
2018-03-28T05:38:39.725Z,3.28
2018-03-28T05:41:06.555Z,4.03
2018-03-28T05:43:33.074Z,5.20
2018-03-28T05:45:59.608Z,3.95
2018-03-28T05:48:26.187Z,3.20
2018-03-28T05:50:54.294Z,2.75
2018-03-28T05:53:20.894Z,3.30
2018-03-28T05:55:47.943Z,2.53
2018-03-28T05:58:14.457Z,2.67
2018-03-28T06:00:41.064Z,3.50
2018-03-28T06:03:07.866Z,2.75
2018-03-28T06:05:34.673Z,3.72
2018-03-28T06:08:01.291Z,3.10
2018-03-28T06:10:28.445Z,3.72
2018-03-28T06:12:54.969Z,4.87
2018-03-28T06:15:21.490Z,6.80
2018-03-28T06:17:48.230Z,4.63
2018-03-28T06:20:15.030Z,4.27
2018-03-28T06:22:42.104Z,5.03
2018-03-28T06:25:08.700Z,6.37
2018-03-28T06:27:35.552Z,5.00
2018-03-28T06:30:02.123Z,5.27
2018-03-28T06:32:29.499Z,6.47
2018-03-28T06:34:56.130Z,5.30
2018-03-28T06:37:23.882Z,7.10
2018-03-28T06:39:51.152Z,6.63
2018-03-28T06:42:17.787Z,4.57
2018-03-28T06:44:44.477Z,5.03
2018-03-28T06:47:11.968Z,5.13
2018-03-28T06:49:38.584Z,5.50
2018-03-28T06:52:05.356Z,5.93
2018-03-28T06:54:32.010Z,5.93
2018-03-28T06:56:58.468Z,6.77
2018-03-28T06:59:24.913Z,4.23
2018-03-28T07:01:51.509Z,4.50
2018-03-28T07:04:18.020Z,4.40
2018-03-28T07:06:44.601Z,5.17
2018-03-28T07:09:11.131Z,4.43
2018-03-28T07:11:37.845Z,7.40
2018-03-28T07:14:04.352Z,4.67
2018-03-28T07:16:30.944Z,2.73
2018-03-28T07:18:57.495Z,3.83
2018-03-28T07:21:24.076Z,3.93
2018-03-28T07:23:52.230Z,4.30
2018-03-28T07:26:18.853Z,3.93
2018-03-28T07:28:45.458Z,2.57
2018-03-28T07:31:12.522Z,2.80
2018-03-28T07:33:39.122Z,3.77
2018-03-28T07:36:07.106Z,3.47
2018-03-28T07:38:34.037Z,3.07
2018-03-28T07:41:00.812Z,3.13
2018-03-28T07:43:28.302Z,3.13
2018-03-28T07:45:55.174Z,2.80
2018-03-28T07:48:22.702Z,2.53
2018-03-28T07:50:49.242Z,2.43
2018-03-28T07:53:16.345Z,1.93
2018-03-28T07:55:42.965Z,2.23
2018-03-28T07:58:10.290Z,1.87
2018-03-28T08:00:36.846Z,2.67
2018-03-28T08:03:04.392Z,2.70
2018-03-28T08:05:31.812Z,2.53
2018-03-28T08:07:58.500Z,2.93
2018-03-28T08:10:25.813Z,2.07
2018-03-28T08:12:52.545Z,2.00
2018-03-28T08:15:19.264Z,1.70
2018-03-28T08:17:46.047Z,2.77
2018-03-28T08:20:12.570Z,1.77
2018-03-28T08:22:39.133Z,2.20
2018-03-28T08:25:09.832Z,2.43
2018-03-28T08:27:36.281Z,2.77
2018-03-28T08:30:03.347Z,2.30
2018-03-28T08:32:31.869Z,1.93
2018-03-28T08:34:58.337Z,1.87
2018-03-28T08:37:24.991Z,2.17
2018-03-28T08:39:51.642Z,2.60
2018-03-28T08:42:18.802Z,2.37
2018-03-28T08:44:45.568Z,2.17
2018-03-28T08:47:12.110Z,2.50
2018-03-28T08:49:38.694Z,2.70
2018-03-28T08:52:05.430Z,6.77
2018-03-28T08:54:32.859Z,2.17
2018-03-28T08:56:59.370Z,2.13
2018-03-28T08:59:25.919Z,3.90
2018-03-28T09:01:52.466Z,2.13
2018-03-28T09:04:19.153Z,1.77
2018-03-28T09:06:46.209Z,2.13
2018-03-28T09:09:12.889Z,1.90
2018-03-28T09:11:39.971Z,1.53
2018-03-28T09:14:07.340Z,2.00
2018-03-28T09:16:33.949Z,1.50
2018-03-28T09:19:00.452Z,1.47
2018-03-28T09:21:27.214Z,2.37
2018-03-28T09:23:54.544Z,2.27
2018-03-28T09:26:21.158Z,1.80
2018-03-28T09:28:48.482Z,2.37
2018-03-28T09:31:15.204Z,1.97
2018-03-28T09:33:41.714Z,2.83
2018-03-28T09:36:08.186Z,2.13
2018-03-28T09:38:34.700Z,2.10
2018-03-28T09:41:03.878Z,2.40
2018-03-28T09:43:30.683Z,1.97
2018-03-28T09:45:57.207Z,2.33
2018-03-28T09:48:23.682Z,2.40
2018-03-28T09:50:50.316Z,3.03
2018-03-28T09:53:17.501Z,4.77
2018-03-28T09:55:44.172Z,2.83
2018-03-28T09:58:10.832Z,2.40
2018-03-28T10:00:41.053Z,2.20
2018-03-28T10:03:12.089Z,2.37
2018-03-28T10:05:38.662Z,1.77
2018-03-28T10:08:06.297Z,1.10
2018-03-28T10:10:33.231Z,2.60
2018-03-28T10:12:59.807Z,1.30
2018-03-28T10:15:27.143Z,1.60
2018-03-28T10:17:54.649Z,1.97
2018-03-28T10:20:21.132Z,3.10
2018-03-28T10:22:47.671Z,1.10
2018-03-28T10:25:14.512Z,1.40
2018-03-28T10:27:41.085Z,2.70
2018-03-28T10:30:07.566Z,1.30
2018-03-28T10:32:34.168Z,1.17
2018-03-28T10:35:01.541Z,2.07
2018-03-28T10:37:28.782Z,1.87
2018-03-28T10:39:55.762Z,3.43
2018-03-28T10:42:22.364Z,1.60
2018-03-28T10:44:49.105Z,1.57
2018-03-28T10:47:15.689Z,1.40
2018-03-28T10:49:42.150Z,1.50
2018-03-28T10:52:09.737Z,1.63
2018-03-28T10:54:36.308Z,1.50
2018-03-28T10:57:03.121Z,1.40
2018-03-28T10:59:29.674Z,1.10
2018-03-28T11:01:56.322Z,2.43
2018-03-28T11:04:22.769Z,2.43
2018-03-28T11:06:50.039Z,1.90
2018-03-28T11:09:16.662Z,1.63
2018-03-28T11:11:43.294Z,1.93
2018-03-28T11:14:10.685Z,1.67
2018-03-28T11:16:37.891Z,2.60
2018-03-28T11:19:05.245Z,1.80
2018-03-28T11:21:31.734Z,2.77
2018-03-28T11:23:58.652Z,4.80
2018-03-28T11:26:25.939Z,2.93
2018-03-28T11:28:53.299Z,2.73
2018-03-28T11:31:20.055Z,1.73
2018-03-28T11:33:47.396Z,1.23
2018-03-28T11:36:14.017Z,2.17
2018-03-28T11:38:40.582Z,1.40
2018-03-28T11:41:07.042Z,1.40
2018-03-28T11:43:34.366Z,2.40
2018-03-28T11:46:00.982Z,3.00
2018-03-28T11:48:28.073Z,1.30
2018-03-28T11:50:54.620Z,1.10
2018-03-28T11:53:21.133Z,1.53
2018-03-28T11:55:47.732Z,1.40
2018-03-28T11:58:18.980Z,2.40
2018-03-28T12:00:45.721Z,1.40
2018-03-28T12:03:12.993Z,1.33
2018-03-28T12:05:39.636Z,1.60
2018-03-28T12:08:06.400Z,1.60
2018-03-28T12:10:33.268Z,1.33
2018-03-28T12:13:00.623Z,1.13
2018-03-28T12:15:27.368Z,1.40
2018-03-28T12:17:53.967Z,2.77
2018-03-28T12:20:20.570Z,3.27
2018-03-28T12:22:48.093Z,1.80
2018-03-28T12:25:14.746Z,1.47
2018-03-28T12:27:41.551Z,3.00
2018-03-28T12:30:08.055Z,1.60
2018-03-28T12:32:34.641Z,3.63
2018-03-28T12:35:01.178Z,1.50
2018-03-28T12:37:27.663Z,1.30
2018-03-28T12:39:54.159Z,2.23
2018-03-28T12:42:21.311Z,1.80
2018-03-28T12:44:47.890Z,1.97
2018-03-28T12:47:15.440Z,2.27
2018-03-28T12:49:42.101Z,1.80
2018-03-28T12:52:08.668Z,1.90
2018-03-28T12:54:35.895Z,2.17
2018-03-28T12:57:03.528Z,1.53
2018-03-28T12:59:31.132Z,1.40
2018-03-28T13:01:57.809Z,1.17
2018-03-28T13:04:24.504Z,2.40
2018-03-28T13:06:51.386Z,1.47
2018-03-28T13:09:18.700Z,1.40
2018-03-28T13:11:45.370Z,1.20
2018-03-28T13:14:11.906Z,1.97
2018-03-28T13:16:38.628Z,1.90
2018-03-28T13:19:05.184Z,1.97
2018-03-28T13:21:31.756Z,2.10
2018-03-28T13:23:59.573Z,2.07
2018-03-28T13:26:26.006Z,1.60
2018-03-28T13:28:52.674Z,1.40
2018-03-28T13:31:19.459Z,2.57
2018-03-28T13:33:46.032Z,3.13
2018-03-28T13:36:12.583Z,1.50
2018-03-28T13:38:39.584Z,1.83
2018-03-28T13:41:06.096Z,2.07
2018-03-28T13:43:32.746Z,2.03
2018-03-28T13:45:59.207Z,1.43
2018-03-28T13:48:28.708Z,2.00
2018-03-28T13:50:56.300Z,1.70
2018-03-28T13:53:23.601Z,2.27
2018-03-28T13:55:50.967Z,3.83
2018-03-28T13:58:17.516Z,3.97
2018-03-28T14:00:43.990Z,1.93
2018-03-28T14:03:10.636Z,2.00
2018-03-28T14:05:38.048Z,1.87
2018-03-28T14:08:06.545Z,2.50
2018-03-28T14:10:33.218Z,1.23
2018-03-28T14:13:00.099Z,1.20
2018-03-28T14:15:26.563Z,1.73
2018-03-28T14:17:53.148Z,1.47
2018-03-28T14:20:19.772Z,1.70
2018-03-28T14:22:47.038Z,1.60
2018-03-28T14:25:14.368Z,1.60
2018-03-28T14:27:41.082Z,1.07
2018-03-28T14:30:07.666Z,1.30
2018-03-28T14:32:34.232Z,2.00
2018-03-28T14:35:01.101Z,2.60
2018-03-28T14:37:28.449Z,1.40
2018-03-28T14:39:54.927Z,1.27
2018-03-28T14:42:22.330Z,1.60
2018-03-28T14:44:48.846Z,3.93
2018-03-28T14:47:15.651Z,1.57
2018-03-28T14:49:42.199Z,2.67
2018-03-28T14:52:09.396Z,1.27
2018-03-28T14:54:37.097Z,1.37
2018-03-28T14:57:04.170Z,1.70
2018-03-28T14:59:31.412Z,1.07
2018-03-28T15:01:58.106Z,1.53
2018-03-28T15:04:25.147Z,1.60
2018-03-28T15:06:51.705Z,2.17
2018-03-28T15:09:18.355Z,1.20
2018-03-28T15:11:45.495Z,1.83
2018-03-28T15:17:30.481Z,1.50
2018-03-28T15:19:57.323Z,2.10
2018-03-28T15:22:23.964Z,2.10
2018-03-28T15:24:50.625Z,1.03
2018-03-28T15:27:17.898Z,2.77
2018-03-28T15:29:44.533Z,2.20
2018-03-28T15:32:11.779Z,4.23
2018-03-28T15:34:38.252Z,7.73
2018-03-28T15:37:04.829Z,2.10
2018-03-28T15:39:31.400Z,1.70
2018-03-28T15:41:58.735Z,1.70
2018-03-28T15:44:25.297Z,5.33
2018-03-28T15:46:51.880Z,2.20
2018-03-28T15:49:18.314Z,2.30
2018-03-28T15:51:45.273Z,2.50
2018-03-28T15:54:11.925Z,1.80
2018-03-28T15:56:38.860Z,1.90
2018-03-28T15:59:05.471Z,1.67
2018-03-28T16:01:33.189Z,5.30
2018-03-28T16:04:00.329Z,2.80
2018-03-28T16:06:28.341Z,3.73
2018-03-28T16:08:55.096Z,2.03
2018-03-28T16:11:21.903Z,2.40
2018-03-28T16:13:48.584Z,2.30
2018-03-28T16:16:15.735Z,1.23
2018-03-28T16:18:42.330Z,2.00
2018-03-28T16:21:09.704Z,1.93
2018-03-28T16:23:36.240Z,1.77
2018-03-28T16:26:02.793Z,1.90
2018-03-28T16:28:29.425Z,2.17
2018-03-28T16:30:56.305Z,2.17
2018-03-28T16:33:22.812Z,2.87
2018-03-28T16:35:49.397Z,1.33
2018-03-28T16:38:16.180Z,1.70
2018-03-28T16:40:43.560Z,1.90
2018-03-28T16:43:10.808Z,1.50
2018-03-28T16:45:37.326Z,2.33
2018-03-28T16:48:03.903Z,1.67
2018-03-28T16:50:30.541Z,1.67
2018-03-28T16:52:58.062Z,2.27
2018-03-28T16:55:24.514Z,1.87
2018-03-28T16:57:51.065Z,1.40
2018-03-28T17:00:17.622Z,2.33
2018-03-28T17:02:44.932Z,1.90
2018-03-28T17:05:11.380Z,1.70
2018-03-28T17:07:37.890Z,1.87
2018-03-28T17:10:04.476Z,1.70
2018-03-28T17:12:31.034Z,2.75
2018-03-28T17:14:58.485Z,1.70
2018-03-28T17:17:25.759Z,3.33
2018-03-28T17:19:52.227Z,2.90
2018-03-28T17:22:18.809Z,2.60
2018-03-28T17:24:46.451Z,2.60
2018-03-28T17:27:13.148Z,1.60
2018-03-28T17:29:41.442Z,2.13
2018-03-28T17:32:07.976Z,2.47
2018-03-28T17:34:34.450Z,5.05
2018-03-28T17:37:00.958Z,2.67
2018-03-28T17:39:27.429Z,1.92
2018-03-28T17:41:53.971Z,2.22
2018-03-28T17:44:21.274Z,2.53
2018-03-28T17:46:48.241Z,1.55
2018-03-28T17:49:15.177Z,2.57
2018-03-28T17:51:41.808Z,1.90
2018-03-28T17:54:08.352Z,3.22
2018-03-28T17:56:35.649Z,2.45
2018-03-28T17:59:02.414Z,4.80
2018-03-28T18:01:29.142Z,3.42
2018-03-28T18:03:56.948Z,2.67
2018-03-28T18:06:23.376Z,2.20
2018-03-28T18:08:49.970Z,2.97
2018-03-28T18:11:16.522Z,1.83
2018-03-28T18:13:43.023Z,2.30
2018-03-28T18:16:09.954Z,2.20
2018-03-28T18:18:36.580Z,1.50
2018-03-28T18:21:03.052Z,2.87
2018-03-28T18:23:29.661Z,1.80
2018-03-28T18:25:56.159Z,1.87
2018-03-28T18:28:22.655Z,1.67
2018-03-28T18:30:49.970Z,1.65
2018-03-28T18:33:16.372Z,1.57
2018-03-28T18:35:43.879Z,1.77
2018-03-28T18:38:10.362Z,1.70
2018-03-28T18:40:36.915Z,1.98
2018-03-28T18:43:03.393Z,2.50
2018-03-28T18:45:30.029Z,2.00
2018-03-28T18:47:57.025Z,3.25
2018-03-28T18:50:23.695Z,2.50
2018-03-28T18:52:50.752Z,1.85
2018-03-28T18:55:18.008Z,2.08
2018-03-28T18:57:44.760Z,2.08
2018-03-28T19:00:11.948Z,1.80
2018-03-28T19:02:39.171Z,1.73
2018-03-28T19:05:05.638Z,2.60
2018-03-28T19:07:33.617Z,2.37
2018-03-28T19:10:00.074Z,2.20
2018-03-28T19:12:26.686Z,1.83
2018-03-28T19:14:53.188Z,2.00
2018-03-28T19:17:19.692Z,1.95
2018-03-28T19:19:47.020Z,3.30
2018-03-28T19:22:13.830Z,2.35
2018-03-28T19:24:41.080Z,1.90
2018-03-28T19:27:08.322Z,2.50
2018-03-28T19:29:34.881Z,2.12
2018-03-28T19:32:01.354Z,3.55
2018-03-28T19:34:27.870Z,2.28
2018-03-28T19:36:54.479Z,2.55
2018-03-28T19:39:21.778Z,1.73
2018-03-28T19:41:48.316Z,2.33
2018-03-28T19:44:14.947Z,3.40
2018-03-28T19:46:41.467Z,2.03
2018-03-28T19:49:08.078Z,1.57
2018-03-28T19:51:34.616Z,1.60
2018-03-28T19:54:01.152Z,3.00
2018-03-28T19:56:27.860Z,1.65
2018-03-28T19:58:54.616Z,1.50
2018-03-28T20:01:21.120Z,1.50
2018-03-28T20:03:47.668Z,1.50
2018-03-28T20:06:14.188Z,2.37
2018-03-28T20:08:40.724Z,2.08
2018-03-28T20:11:07.150Z,2.67
2018-03-28T20:13:34.245Z,1.95
2018-03-28T20:16:00.729Z,1.80
2018-03-28T20:18:27.178Z,1.30
2018-03-28T20:20:53.739Z,1.37
2018-03-28T20:23:20.195Z,1.40
2018-03-28T20:25:46.730Z,1.33
2018-03-28T20:28:14.024Z,2.42
2018-03-28T20:30:40.502Z,2.70
2018-03-28T20:33:06.967Z,1.40
2018-03-28T20:35:34.578Z,2.07
2018-03-28T20:38:01.175Z,2.08
2018-03-28T20:40:27.696Z,1.67
2018-03-28T20:42:54.227Z,2.37
2018-03-28T20:45:26.145Z,1.83
2018-03-28T20:47:53.413Z,1.80
2018-03-28T20:50:20.784Z,1.80
2018-03-28T20:52:47.249Z,1.42
2018-03-28T20:55:13.731Z,1.50
2018-03-28T20:57:47.428Z,1.73
2018-03-28T21:00:13.952Z,2.00
2018-03-28T21:02:40.538Z,2.42
2018-03-28T21:05:07.374Z,2.22
2018-03-28T21:07:34.820Z,1.60
2018-03-28T21:10:01.279Z,2.13
2018-03-28T21:12:28.916Z,1.80
2018-03-28T21:14:55.460Z,1.55
2018-03-28T21:17:22.005Z,2.08
2018-03-28T21:19:48.515Z,2.40
2018-03-28T21:22:15.766Z,2.05
2018-03-28T21:24:42.261Z,2.67
2018-03-28T21:27:10.023Z,2.00
2018-03-28T21:29:36.474Z,1.67
2018-03-28T21:32:03.868Z,2.10
2018-03-28T21:34:30.811Z,2.30
2018-03-28T21:36:57.294Z,1.80
2018-03-28T21:39:23.750Z,3.10
2018-03-28T21:41:50.239Z,3.15
2018-03-28T21:44:16.696Z,2.00
2018-03-28T21:46:43.273Z,2.22
2018-03-28T21:49:09.859Z,2.30
2018-03-28T21:51:37.070Z,1.85
2018-03-28T21:54:03.750Z,2.45
2018-03-28T21:56:31.390Z,2.40
2018-03-28T21:58:57.842Z,1.70
2018-03-28T22:01:25.119Z,2.15
2018-03-28T22:03:52.574Z,2.15
2018-03-28T22:06:19.051Z,1.70
2018-03-28T22:08:45.713Z,1.95
2018-03-28T22:11:12.356Z,1.98
2018-03-28T22:13:38.962Z,1.67
2018-03-28T22:16:05.426Z,2.25
2018-03-28T22:18:31.990Z,1.80
2018-03-28T22:20:58.535Z,1.77
2018-03-28T22:23:25.031Z,1.75
2018-03-28T22:25:51.513Z,2.10
2018-03-28T22:28:17.972Z,1.87
2018-03-28T22:30:45.339Z,2.80
2018-03-28T22:33:12.268Z,1.50
2018-03-28T22:35:39.687Z,1.90
2018-03-28T22:38:06.290Z,3.05
2018-03-28T22:40:33.802Z,1.40
2018-03-28T22:43:00.305Z,2.20
2018-03-28T22:45:27.496Z,1.55
2018-03-28T22:47:53.980Z,1.62
2018-03-28T22:50:20.409Z,1.83
2018-03-28T22:52:46.947Z,1.85
2018-03-28T22:55:14.157Z,1.83
2018-03-28T22:57:40.715Z,1.77
2018-03-28T23:00:07.213Z,1.80
2018-03-28T23:02:33.705Z,1.95
2018-03-28T23:05:00.821Z,2.50
2018-03-28T23:07:27.403Z,2.40
2018-03-28T23:09:54.741Z,1.80
2018-03-28T23:12:21.222Z,1.80
2018-03-28T23:14:47.704Z,1.55
2018-03-28T23:17:15.468Z,1.85
2018-03-28T23:19:42.756Z,2.20
2018-03-28T23:22:22.014Z,1.90
2018-03-28T23:24:48.469Z,2.40
2018-03-28T23:27:14.922Z,2.60
2018-03-28T23:29:41.437Z,3.67
2018-03-28T23:32:08.961Z,1.83
2018-03-28T23:34:35.460Z,1.48
2018-03-28T23:37:02.002Z,1.60
2018-03-28T23:39:28.509Z,1.90
2018-03-28T23:41:54.986Z,1.80
2018-03-28T23:44:21.461Z,1.92
2018-03-28T23:46:47.933Z,2.03
2018-03-28T23:49:14.348Z,1.87
2018-03-28T23:51:40.857Z,1.33
2018-03-28T23:54:07.368Z,1.87
2018-03-28T23:56:34.594Z,2.50
2018-03-28T23:59:01.226Z,2.00
